sensor_id;sensor_type;location;lat;lon;timestamp;pressure;altitude;pressure_sealevel;temperature;humidity
26192;BME280;13935;55.672;37.764;2023-09-30T00:04:20;100479.84;;;14.61;100.00
26192;BME280;13935;55.672;37.764;2023-09-30T00:06:12;100485.03;;;14.59;100.00
26192;BME280;13935;55.672;37.764;2023-09-30T00:09:00;100482.66;;;14.47;100.00
26192;BME280;13935;55.672;37.764;2023-09-30T00:10:41;100481.84;;;14.50;100.00
26192;BME280;13935;55.672;37.764;2023-09-30T00:13:21;100482.25;;;14.52;100.00
26192;BME280;13935;55.672;37.764;2023-09-30T00:15:42;100481.06;;;14.50;100.00
26192;BME280;13935;55.672;37.764;2023-09-30T00:17:47;100484.63;;;14.57;100.00
26192;BME280;13935;55.672;37.764;2023-09-30T00:20:45;100481.44;;;14.59;100.00
26192;BME280;13935;55.672;37.764;2023-09-30T00:22:41;100468.72;;;14.54;100.00
26192;BME280;13935;55.672;37.764;2023-09-30T00:24:58;100479.47;;;14.59;100.00
26192;BME280;13935;55.672;37.764;2023-09-30T00:27:04;100468.34;;;14.59;100.00
26192;BME280;13935;55.672;37.764;2023-09-30T00:39:52;100464.34;;;14.39;100.00
26192;BME280;13935;55.672;37.764;2023-09-30T00:42:35;100467.53;;;14.38;100.00
26192;BME280;13935;55.672;37.764;2023-09-30T00:44:45;100464.75;;;14.27;100.00
26192;BME280;13935;55.672;37.764;2023-09-30T00:46:54;100465.94;;;14.20;100.00
26192;BME280;13935;55.672;37.764;2023-09-30T00:48:56;100465.16;;;14.23;100.00
26192;BME280;13935;55.672;37.764;2023-09-30T00:50:24;100469.91;;;14.26;100.00
26192;BME280;13935;55.672;37.764;2023-09-30T00:52:31;100465.16;;;14.23;100.00
26192;BME280;13935;55.672;37.764;2023-09-30T00:57:39;100462.75;;;14.18;100.00
26192;BME280;13935;55.672;37.764;2023-09-30T00:59:21;100456.38;;;14.17;100.00
26192;BME280;13935;55.672;37.764;2023-09-30T01:01:07;100453.59;;;14.17;100.00
26192;BME280;13935;55.672;37.764;2023-09-30T01:02:53;100457.16;;;14.18;100.00
26192;BME280;13935;55.672;37.764;2023-09-30T01:05:01;100452.81;;;14.17;100.00
26192;BME280;13935;55.672;37.764;2023-09-30T01:10:44;100448.81;;;14.14;100.00
26192;BME280;13935;55.672;37.764;2023-09-30T01:16:38;100457.16;;;14.18;100.00
26192;BME280;13935;55.672;37.764;2023-09-30T01:19:08;100450.81;;;14.21;100.00
26192;BME280;13935;55.672;37.764;2023-09-30T01:21:24;100452.00;;;14.20;100.00
26192;BME280;13935;55.672;37.764;2023-09-30T01:23:24;100452.41;;;14.11;100.00
26192;BME280;13935;55.672;37.764;2023-09-30T01:26:03;100457.53;;;14.06;100.00
26192;BME280;13935;55.672;37.764;2023-09-30T01:30:33;100456.31;;;14.00;100.00
26192;BME280;13935;55.672;37.764;2023-09-30T01:32:02;100456.31;;;14.00;100.00
26192;BME280;13935;55.672;37.764;2023-09-30T01:33:46;100461.13;;;14.03;100.00
26192;BME280;13935;55.672;37.764;2023-09-30T01:35:29;100460.69;;;14.01;100.00
26192;BME280;13935;55.672;37.764;2023-09-30T01:37:21;100446.00;;;14.00;100.00
26192;BME280;13935;55.672;37.764;2023-09-30T01:39:09;100449.59;;;14.04;100.00
26192;BME280;13935;55.672;37.764;2023-09-30T01:41:00;100453.97;;;14.09;100.00
26192;BME280;13935;55.672;37.764;2023-09-30T01:42:55;100457.16;;;14.11;100.00
26192;BME280;13935;55.672;37.764;2023-09-30T01:44:30;100446.41;;;14.06;100.00
26192;BME280;13935;55.672;37.764;2023-09-30T01:48:58;100452.38;;;14.04;100.00
26192;BME280;13935;55.672;37.764;2023-09-30T01:50:25;100450.75;;;14.00;100.00
26192;BME280;13935;55.672;37.764;2023-09-30T01:51:52;100453.94;;;14.02;100.00
26192;BME280;13935;55.672;37.764;2023-09-30T01:53:27;100454.34;;;14.00;100.00
26192;BME280;13935;55.672;37.764;2023-09-30T01:55:10;100450.38;;;14.01;100.00
26192;BME280;13935;55.672;37.764;2023-09-30T01:56:49;100450.38;;;14.05;100.00
26192;BME280;13935;55.672;37.764;2023-09-30T01:58:45;100448.38;;;13.98;100.00
26192;BME280;13935;55.672;37.764;2023-09-30T02:00:19;100449.16;;;13.99;100.00
26192;BME280;13935;55.672;37.764;2023-09-30T02:02:05;100452.34;;;13.94;100.00
26192;BME280;13935;55.672;37.764;2023-09-30T02:03:33;100450.38;;;13.98;100.00
26192;BME280;13935;55.672;37.764;2023-09-30T02:05:18;100445.19;;;13.93;100.00
26192;BME280;13935;55.672;37.764;2023-09-30T02:10:54;100448.34;;;13.81;100.00
26192;BME280;13935;55.672;37.764;2023-09-30T02:17:37;100449.91;;;13.75;100.00
26192;BME280;13935;55.672;37.764;2023-09-30T02:23:01;100443.97;;;13.73;100.00
26192;BME280;13935;55.672;37.764;2023-09-30T02:26:02;100446.34;;;13.74;100.00
26192;BME280;13935;55.672;37.764;2023-09-30T02:28:12;100449.13;;;13.71;100.00
26192;BME280;13935;55.672;37.764;2023-09-30T02:29:39;100447.53;;;13.70;100.00
26192;BME280;13935;55.672;37.764;2023-09-30T02:31:09;100450.72;;;13.72;100.00
26192;BME280;13935;55.672;37.764;2023-09-30T02:34:30;100444.34;;;13.68;100.00
26192;BME280;13935;55.672;37.764;2023-09-30T02:36:15;100440.38;;;13.69;100.00
26192;BME280;13935;55.672;37.764;2023-09-30T02:37:59;100442.75;;;13.70;100.00
26192;BME280;13935;55.672;37.764;2023-09-30T02:39:54;100441.19;;;13.69;100.00
26192;BME280;13935;55.672;37.764;2023-09-30T02:41:16;100434.81;;;13.69;100.00
26192;BME280;13935;55.672;37.764;2023-09-30T02:42:51;100431.63;;;13.70;100.00
26192;BME280;13935;55.672;37.764;2023-09-30T02:44:19;100437.19;;;13.74;100.00
26192;BME280;13935;55.672;37.764;2023-09-30T02:45:43;100427.66;;;13.75;100.00
26192;BME280;13935;55.672;37.764;2023-09-30T02:47:05;100438.81;;;13.78;100.00
26192;BME280;13935;55.672;37.764;2023-09-30T02:48:31;100433.22;;;13.75;100.00
26192;BME280;13935;55.672;37.764;2023-09-30T02:49:58;100430.06;;;13.76;100.00
26192;BME280;13935;55.672;37.764;2023-09-30T02:51:59;100438.41;;;13.73;100.00
26192;BME280;13935;55.672;37.764;2023-09-30T02:53:44;100430.44;;;13.68;100.00
26192;BME280;13935;55.672;37.764;2023-09-30T02:55:10;100423.69;;;13.69;100.00
26192;BME280;13935;55.672;37.764;2023-09-30T02:56:23;100425.28;;;13.70;100.00
26192;BME280;13935;55.672;37.764;2023-09-30T02:58:24;100421.72;;;13.69;100.00
26192;BME280;13935;55.672;37.764;2023-09-30T02:59:47;100422.91;;;13.72;100.00
26192;BME280;13935;55.672;37.764;2023-09-30T03:02:12;100423.69;;;13.72;100.00
26192;BME280;13935;55.672;37.764;2023-09-30T03:04:03;100425.69;;;13.72;100.00
26192;BME280;13935;55.672;37.764;2023-09-30T03:06:18;100414.94;;;13.74;100.00
26192;BME280;13935;55.672;37.764;2023-09-30T03:08:13;100418.53;;;13.74;100.00
26192;BME280;13935;55.672;37.764;2023-09-30T03:10:29;100418.13;;;13.72;100.00
26192;BME280;13935;55.672;37.764;2023-09-30T03:12:08;100420.91;;;13.72;100.00
26192;BME280;13935;55.672;37.764;2023-09-30T03:14:00;100418.94;;;13.73;100.00
26192;BME280;13935;55.672;37.764;2023-09-30T03:15:13;100419.72;;;13.70;100.00
26192;BME280;13935;55.672;37.764;2023-09-30T03:17:02;100416.16;;;13.73;100.00
26192;BME280;13935;55.672;37.764;2023-09-30T03:18:18;100420.50;;;13.74;100.00
26192;BME280;13935;55.672;37.764;2023-09-30T03:19:41;100411.78;;;13.72;100.00
26192;BME280;13935;55.672;37.764;2023-09-30T03:21:32;100410.19;;;13.74;100.00
26192;BME280;13935;55.672;37.764;2023-09-30T03:22:51;100419.31;;;13.75;100.00
26192;BME280;13935;55.672;37.764;2023-09-30T03:24:45;100421.31;;;13.71;100.00
26192;BME280;13935;55.672;37.764;2023-09-30T03:26:28;100414.16;;;13.70;100.00
26192;BME280;13935;55.672;37.764;2023-09-30T03:28:05;100415.72;;;13.64;100.00
26192;BME280;13935;55.672;37.764;2023-09-30T03:29:27;100416.50;;;13.64;100.00
26192;BME280;13935;55.672;37.764;2023-09-30T03:31:22;100412.53;;;13.65;100.00
26192;BME280;13935;55.672;37.764;2023-09-30T03:32:32;100416.53;;;13.68;100.00
26192;BME280;13935;55.672;37.764;2023-09-30T03:33:59;100410.97;;;13.71;100.00
26192;BME280;13935;55.672;37.764;2023-09-30T03:36:08;100417.34;;;13.68;100.00
26192;BME280;13935;55.672;37.764;2023-09-30T03:37:50;100419.31;;;13.71;100.00
26192;BME280;13935;55.672;37.764;2023-09-30T03:39:54;100407.81;;;13.69;100.00
26192;BME280;13935;55.672;37.764;2023-09-30T03:42:29;100414.16;;;13.77;100.00
26192;BME280;13935;55.672;37.764;2023-09-30T03:44:18;100408.63;;;13.80;100.00
26192;BME280;13935;55.672;37.764;2023-09-30T03:46:28;100411.81;;;13.86;100.00
26192;BME280;13935;55.672;37.764;2023-09-30T03:48:27;100410.22;;;13.85;100.00
26192;BME280;13935;55.672;37.764;2023-09-30T03:49:36;100407.03;;;13.90;100.00
26192;BME280;13935;55.672;37.764;2023-09-30T03:51:36;100410.22;;;13.95;100.00
26192;BME280;13935;55.672;37.764;2023-09-30T03:56:09;100413.41;;;14.08;100.00
26192;BME280;13935;55.672;37.764;2023-09-30T03:58:01;100414.22;;;14.15;100.00
26192;BME280;13935;55.672;37.764;2023-09-30T03:59:27;100409.47;;;14.16;100.00
26192;BME280;13935;55.672;37.764;2023-09-30T04:01:21;100413.06;;;14.27;100.00
26192;BME280;13935;55.672;37.764;2023-09-30T04:02:54;100407.91;;;14.32;100.00
26192;BME280;13935;55.672;37.764;2023-09-30T04:05:00;100411.88;;;14.41;100.00
26192;BME280;13935;55.672;37.764;2023-09-30T04:06:59;100403.09;;;14.50;100.00
26192;BME280;13935;55.672;37.764;2023-09-30T04:09:24;100403.88;;;14.57;100.00
26192;BME280;13935;55.672;37.764;2023-09-30T04:10:50;100411.03;;;14.62;100.00
26192;BME280;13935;55.672;37.764;2023-09-30T04:12:50;100413.41;;;14.70;100.00
26192;BME280;13935;55.672;37.764;2023-09-30T04:14:17;100399.06;;;14.79;100.00
26192;BME280;13935;55.672;37.764;2023-09-30T04:16:48;100401.41;;;14.87;100.00
26192;BME280;13935;55.672;37.764;2023-09-30T04:18:41;100398.19;;;14.96;100.00
26192;BME280;13935;55.672;37.764;2023-09-30T04:20:57;100393.41;;;15.06;100.00
26192;BME280;13935;55.672;37.764;2023-09-30T04:23:30;100390.19;;;15.15;100.00
26192;BME280;13935;55.672;37.764;2023-09-30T04:25:26;100393.34;;;15.27;100.00
26192;BME280;13935;55.672;37.764;2023-09-30T04:27:29;100390.09;;;15.36;100.00
26192;BME280;13935;55.672;37.764;2023-09-30T04:29:46;100400.78;;;15.48;100.00
26192;BME280;13935;55.672;37.764;2023-09-30T04:35:53;100391.59;;;16.59;100.00
26192;BME280;13935;55.672;37.764;2023-09-30T04:37:16;100383.91;;;17.07;100.00
26192;BME280;13935;55.672;37.764;2023-09-30T04:39:20;100388.34;;;17.37;100.00
26192;BME280;13935;55.672;37.764;2023-09-30T04:41:35;100380.84;;;18.10;100.00
26192;BME280;13935;55.672;37.764;2023-09-30T04:42:38;100382.72;;;18.43;100.00
26192;BME280;13935;55.672;37.764;2023-09-30T04:43:41;100388.56;;;18.74;100.00
26192;BME280;13935;55.672;37.764;2023-09-30T04:44:57;100375.66;;;19.19;100.00
26192;BME280;13935;55.672;37.764;2023-09-30T04:46:00;100379.97;;;19.43;100.00
26192;BME280;13935;55.672;37.764;2023-09-30T04:47:05;100384.78;;;19.62;100.00
26192;BME280;13935;55.672;37.764;2023-09-30T04:48:07;100375.75;;;20.06;100.00
26192;BME280;13935;55.672;37.764;2023-09-30T04:49:15;100367.28;;;20.37;100.00
26192;BME280;13935;55.672;37.764;2023-09-30T04:50:18;100370.06;;;20.69;100.00
26192;BME280;13935;55.672;37.764;2023-09-30T04:51:24;100367.59;;;20.71;100.00
26192;BME280;13935;55.672;37.764;2023-09-30T04:52:27;100370.84;;;20.85;100.00
26192;BME280;13935;55.672;37.764;2023-09-30T04:53:30;100369.69;;;20.99;100.00
26192;BME280;13935;55.672;37.764;2023-09-30T04:54:32;100371.66;;;21.27;100.00
26192;BME280;13935;55.672;37.764;2023-09-30T04:55:37;100368.72;;;21.58;100.00
26192;BME280;13935;55.672;37.764;2023-09-30T04:57:16;100375.69;;;21.54;100.00
26192;BME280;13935;55.672;37.764;2023-09-30T04:58:18;100379.69;;;21.81;100.00
26192;BME280;13935;55.672;37.764;2023-09-30T04:59:20;100378.66;;;22.00;100.00
26192;BME280;13935;55.672;37.764;2023-09-30T05:00:22;100384.44;;;22.09;100.00
26192;BME280;13935;55.672;37.764;2023-09-30T05:01:28;100379.47;;;22.01;100.00
26192;BME280;13935;55.672;37.764;2023-09-30T05:02:31;100381.38;;;21.91;100.00
26192;BME280;13935;55.672;37.764;2023-09-30T05:03:33;100376.41;;;22.08;100.00
26192;BME280;13935;55.672;37.764;2023-09-30T05:04:35;100382.69;;;22.24;100.00
26192;BME280;13935;55.672;37.764;2023-09-30T05:05:38;100376.28;;;22.48;100.00
26192;BME280;13935;55.672;37.764;2023-09-30T05:06:40;100382.56;;;22.65;100.00
26192;BME280;13935;55.672;37.764;2023-09-30T05:07:43;100380.03;;;22.79;99.27
26192;BME280;13935;55.672;37.764;2023-09-30T05:08:45;100383.50;;;23.38;97.05
26192;BME280;13935;55.672;37.764;2023-09-30T05:09:47;100385.91;;;23.70;91.70
26192;BME280;13935;55.672;37.764;2023-09-30T05:11:15;100384.78;;;23.89;86.77
26192;BME280;13935;55.672;37.764;2023-09-30T05:12:19;100380.84;;;24.26;86.73
26192;BME280;13935;55.672;37.764;2023-09-30T05:13:22;100390.06;;;24.56;82.64
26192;BME280;13935;55.672;37.764;2023-09-30T05:14:25;100383.69;;;24.35;82.60
26192;BME280;13935;55.672;37.764;2023-09-30T05:15:29;100383.59;;;24.08;80.46
26192;BME280;13935;55.672;37.764;2023-09-30T05:16:34;100386.94;;;23.33;87.19
26192;BME280;13935;55.672;37.764;2023-09-30T05:17:36;100378.28;;;22.94;91.44
26192;BME280;13935;55.672;37.764;2023-09-30T05:18:38;100375.56;;;22.57;94.50
26192;BME280;13935;55.672;37.764;2023-09-30T05:19:40;100375.47;;;22.23;97.50
26192;BME280;13935;55.672;37.764;2023-09-30T05:30:21;100378.66;;;19.83;100.00
26192;BME280;13935;55.672;37.764;2023-09-30T05:31:23;100378.41;;;19.42;100.00
26192;BME280;13935;55.672;37.764;2023-09-30T05:32:26;100375.66;;;19.38;100.00
26192;BME280;13935;55.672;37.764;2023-09-30T05:33:28;100373.84;;;19.48;100.00
26192;BME280;13935;55.672;37.764;2023-09-30T05:34:31;100376.84;;;19.57;100.00
26192;BME280;13935;55.672;37.764;2023-09-30T05:35:36;100365.72;;;19.34;100.00
26192;BME280;13935;55.672;37.764;2023-09-30T05:36:39;100375.06;;;19.47;100.00
26192;BME280;13935;55.672;37.764;2023-09-30T05:37:43;100367.69;;;19.37;100.00
26192;BME280;13935;55.672;37.764;2023-09-30T05:38:48;100374.56;;;19.52;100.00
26192;BME280;13935;55.672;37.764;2023-09-30T05:39:54;100367.41;;;19.12;100.00
26192;BME280;13935;55.672;37.764;2023-09-30T05:40:56;100370.03;;;19.19;100.00
26192;BME280;13935;55.672;37.764;2023-09-30T05:42:01;100365.28;;;19.35;100.00
26192;BME280;13935;55.672;37.764;2023-09-30T05:43:03;100364.50;;;19.35;100.00
26192;BME280;13935;55.672;37.764;2023-09-30T05:44:09;100363.84;;;19.47;100.00
26192;BME280;13935;55.672;37.764;2023-09-30T05:45:14;100366.34;;;19.41;100.00
26192;BME280;13935;55.672;37.764;2023-09-30T05:46:20;100364.28;;;19.26;100.00
26192;BME280;13935;55.672;37.764;2023-09-30T05:47:23;100363.50;;;19.26;100.00
26192;BME280;13935;55.672;37.764;2023-09-30T05:48:26;100366.25;;;19.29;100.00
26192;BME280;13935;55.672;37.764;2023-09-30T05:49:28;100361.16;;;19.24;100.00
26192;BME280;13935;55.672;37.764;2023-09-30T05:50:32;100363.06;;;19.27;100.00
26192;BME280;13935;55.672;37.764;2023-09-30T05:51:36;100362.63;;;19.29;100.00
26192;BME280;13935;55.672;37.764;2023-09-30T05:52:38;100359.25;;;19.37;100.00
26192;BME280;13935;55.672;37.764;2023-09-30T05:53:41;100361.19;;;19.40;100.00
26192;BME280;13935;55.672;37.764;2023-09-30T05:54:43;100361.41;;;19.49;100.00
26192;BME280;13935;55.672;37.764;2023-09-30T05:55:45;100356.28;;;19.44;100.00
26192;BME280;13935;55.672;37.764;2023-09-30T05:56:48;100355.94;;;19.42;100.00
26192;BME280;13935;55.672;37.764;2023-09-30T05:57:51;100360.75;;;19.41;100.00
26192;BME280;13935;55.672;37.764;2023-09-30T05:58:54;100361.41;;;19.49;100.00
26192;BME280;13935;55.672;37.764;2023-09-30T05:59:56;100357.22;;;19.37;100.00
26192;BME280;13935;55.672;37.764;2023-09-30T06:00:58;100361.19;;;19.40;100.00
26192;BME280;13935;55.672;37.764;2023-09-30T06:02:02;100354.34;;;19.41;100.00
26192;BME280;13935;55.672;37.764;2023-09-30T06:03:11;100358.94;;;19.51;100.00
26192;BME280;13935;55.672;37.764;2023-09-30T06:04:14;100355.63;;;19.56;100.00
26192;BME280;13935;55.672;37.764;2023-09-30T06:05:20;100359.66;;;19.55;100.00
26192;BME280;13935;55.672;37.764;2023-09-30T06:06:24;100347.53;;;19.58;100.00
26192;BME280;13935;55.672;37.764;2023-09-30T06:07:27;100354.75;;;19.59;100.00
26192;BME280;13935;55.672;37.764;2023-09-30T06:08:29;100348.88;;;19.69;100.00
26192;BME280;13935;55.672;37.764;2023-09-30T06:09:34;100347.31;;;19.68;100.00
26192;BME280;13935;55.672;37.764;2023-09-30T06:10:42;100352.06;;;19.71;100.00
26192;BME280;13935;55.672;37.764;2023-09-30T06:11:47;100351.88;;;19.78;100.00
26192;BME280;13935;55.672;37.764;2023-09-30T06:12:53;100344.78;;;19.90;100.00
26192;BME280;13935;55.672;37.764;2023-09-30T06:14:03;100347.88;;;20.11;100.00
26192;BME280;13935;55.672;37.764;2023-09-30T06:15:10;100344.34;;;20.55;100.00
26192;BME280;13935;55.672;37.764;2023-09-30T06:16:13;100344.88;;;21.35;100.00
26192;BME280;13935;55.672;37.764;2023-09-30T06:17:17;100343.03;;;22.06;100.00
26192;BME280;13935;55.672;37.764;2023-09-30T06:18:19;100339.63;;;22.36;100.00
26192;BME280;13935;55.672;37.764;2023-09-30T06:19:21;100348.13;;;22.91;96.83
26192;BME280;13935;55.672;37.764;2023-09-30T06:20:24;100344.13;;;23.65;90.43
26192;BME280;13935;55.672;37.764;2023-09-30T06:21:29;100342.09;;;24.05;87.31
26192;BME280;13935;55.672;37.764;2023-09-30T06:22:31;100345.69;;;24.45;80.81
26192;BME280;13935;55.672;37.764;2023-09-30T06:23:34;100352.00;;;24.66;78.86
26192;BME280;13935;55.672;37.764;2023-09-30T06:24:36;100347.94;;;25.21;72.98
26192;BME280;13935;55.672;37.764;2023-09-30T06:25:38;100340.59;;;25.65;70.33
26192;BME280;13935;55.672;37.764;2023-09-30T06:26:41;100343.25;;;25.77;68.34
26192;BME280;13935;55.672;37.764;2023-09-30T06:27:47;100343.53;;;26.20;65.72
26192;BME280;13935;55.672;37.764;2023-09-30T06:28:54;100343.09;;;26.13;65.21
26192;BME280;13935;55.672;37.764;2023-09-30T06:29:57;100347.47;;;26.23;64.38
26192;BME280;13935;55.672;37.764;2023-09-30T06:30:59;100340.19;;;26.54;63.19
26192;BME280;13935;55.672;37.764;2023-09-30T06:32:02;100334.38;;;26.25;62.61
26192;BME280;13935;55.672;37.764;2023-09-30T06:33:06;100334.59;;;26.83;61.51
26192;BME280;13935;55.672;37.764;2023-09-30T06:34:11;100339.50;;;27.06;60.58
26192;BME280;13935;55.672;37.764;2023-09-30T06:35:13;100334.16;;;27.37;58.75
26192;BME280;13935;55.672;37.764;2023-09-30T06:36:21;100337.00;;;27.65;56.66
26192;BME280;13935;55.672;37.764;2023-09-30T06:37:23;100350.03;;;27.57;54.71
26192;BME280;13935;55.672;37.764;2023-09-30T06:38:25;100337.09;;;27.85;54.02
26192;BME280;13935;55.672;37.764;2023-09-30T06:39:27;100337.50;;;27.78;54.82
26192;BME280;13935;55.672;37.764;2023-09-30T06:40:31;100342.19;;;27.96;53.60
26192;BME280;13935;55.672;37.764;2023-09-30T06:41:35;100333.28;;;28.37;52.09
26192;BME280;13935;55.672;37.764;2023-09-30T06:42:41;100341.69;;;28.66;50.16
26192;BME280;13935;55.672;37.764;2023-09-30T06:43:46;100336.38;;;28.39;51.34
26192;BME280;13935;55.672;37.764;2023-09-30T06:44:48;100338.81;;;28.66;49.82
26192;BME280;13935;55.672;37.764;2023-09-30T06:45:53;100330.50;;;29.47;47.88
26192;BME280;13935;55.672;37.764;2023-09-30T06:46:56;100331.69;;;29.66;46.96
26192;BME280;13935;55.672;37.764;2023-09-30T06:47:59;100326.00;;;29.66;47.08
26192;BME280;13935;55.672;37.764;2023-09-30T06:49:01;100328.38;;;29.42;46.32
26192;BME280;13935;55.672;37.764;2023-09-30T06:50:08;100325.22;;;29.40;47.41
26192;BME280;13935;55.672;37.764;2023-09-30T06:51:14;100324.41;;;29.34;46.57
26192;BME280;13935;55.672;37.764;2023-09-30T06:52:19;100335.06;;;29.39;47.42
26192;BME280;13935;55.672;37.764;2023-09-30T06:53:21;100336.09;;;29.16;46.72
26192;BME280;13935;55.672;37.764;2023-09-30T06:54:25;100337.78;;;29.48;45.86
26192;BME280;13935;55.672;37.764;2023-09-30T06:55:27;100334.66;;;29.77;45.97
26192;BME280;13935;55.672;37.764;2023-09-30T06:56:31;100327.63;;;29.47;45.91
26192;BME280;13935;55.672;37.764;2023-09-30T06:57:35;100332.31;;;30.06;44.03
26192;BME280;13935;55.672;37.764;2023-09-30T06:58:40;100336.97;;;30.04;43.68
26192;BME280;13935;55.672;37.764;2023-09-30T06:59:42;100340.53;;;29.99;44.18
26192;BME280;13935;55.672;37.764;2023-09-30T07:00:44;100328.94;;;29.77;43.72
26192;BME280;13935;55.672;37.764;2023-09-30T07:01:46;100330.97;;;30.02;44.23
26192;BME280;13935;55.672;37.764;2023-09-30T07:02:48;100336.25;;;29.83;44.27
26192;BME280;13935;55.672;37.764;2023-09-30T07:03:51;100324.94;;;30.31;44.54
26192;BME280;13935;55.672;37.764;2023-09-30T07:04:53;100329.22;;;30.99;41.87
26192;BME280;13935;55.672;37.764;2023-09-30T07:05:56;100328.34;;;31.56;41.32
26192;BME280;13935;55.672;37.764;2023-09-30T07:07:02;100329.19;;;30.46;42.32
26192;BME280;13935;55.672;37.764;2023-09-30T07:08:05;100322.47;;;30.54;41.99
26192;BME280;13935;55.672;37.764;2023-09-30T07:09:07;100329.00;;;31.13;41.76
26192;BME280;13935;55.672;37.764;2023-09-30T07:10:09;100328.19;;;31.07;40.98
26192;BME280;13935;55.672;37.764;2023-09-30T07:11:12;100334.63;;;30.91;41.52
26192;BME280;13935;55.672;37.764;2023-09-30T07:12:14;100328.41;;;30.04;42.67
26192;BME280;13935;55.672;37.764;2023-09-30T07:13:22;100331.47;;;30.37;42.47
26192;BME280;13935;55.672;37.764;2023-09-30T07:14:24;100323.09;;;30.69;41.99
26192;BME280;13935;55.672;37.764;2023-09-30T07:15:27;100327.72;;;30.61;42.00
26192;BME280;13935;55.672;37.764;2023-09-30T07:16:29;100329.34;;;30.32;43.09
26192;BME280;13935;55.672;37.764;2023-09-30T07:17:32;100329.16;;;30.40;42.94
26192;BME280;13935;55.672;37.764;2023-09-30T07:18:34;100328.44;;;30.45;42.34
26192;BME280;13935;55.672;37.764;2023-09-30T07:19:37;100325.25;;;30.91;42.23
26192;BME280;13935;55.672;37.764;2023-09-30T07:20:39;100329.00;;;31.24;41.46
26192;BME280;13935;55.672;37.764;2023-09-30T07:21:41;100327.03;;;30.83;41.18
26192;BME280;13935;55.672;37.764;2023-09-30T07:22:43;100322.41;;;30.38;41.68
26192;BME280;13935;55.672;37.764;2023-09-30T07:24:04;100324.56;;;30.12;42.92
26192;BME280;13935;55.672;37.764;2023-09-30T07:25:07;100315.44;;;30.44;42.34
26192;BME280;13935;55.672;37.764;2023-09-30T07:26:10;100319.91;;;31.20;40.69
26192;BME280;13935;55.672;37.764;2023-09-30T07:27:12;100319.63;;;31.07;41.14
26192;BME280;13935;55.672;37.764;2023-09-30T07:28:28;100321.22;;;31.30;41.38
26192;BME280;13935;55.672;37.764;2023-09-30T07:29:30;100319.09;;;30.50;42.55
26192;BME280;13935;55.672;37.764;2023-09-30T07:30:34;100315.72;;;30.46;42.83
26192;BME280;13935;55.672;37.764;2023-09-30T07:31:36;100316.25;;;30.50;41.96
26192;BME280;13935;55.672;37.764;2023-09-30T07:32:38;100317.16;;;30.84;42.35
26192;BME280;13935;55.672;37.764;2023-09-30T07:33:40;100318.94;;;30.70;41.56
26192;BME280;13935;55.672;37.764;2023-09-30T07:34:45;100317.97;;;30.42;41.91
26192;BME280;13935;55.672;37.764;2023-09-30T07:35:47;100318.53;;;30.99;41.57
26192;BME280;13935;55.672;37.764;2023-09-30T07:36:49;100312.53;;;30.92;40.67
26192;BME280;13935;55.672;37.764;2023-09-30T07:37:51;100312.06;;;31.04;40.14
26192;BME280;13935;55.672;37.764;2023-09-30T07:38:55;100313.28;;;30.92;40.97
26192;BME280;13935;55.672;37.764;2023-09-30T07:39:58;100311.88;;;31.29;40.28
26192;BME280;13935;55.672;37.764;2023-09-30T07:41:00;100311.03;;;31.07;40.29
26192;BME280;13935;55.672;37.764;2023-09-30T07:42:02;100309.25;;;31.26;39.95
26192;BME280;13935;55.672;37.764;2023-09-30T07:43:05;100313.59;;;29.44;43.18
26192;BME280;13935;55.672;37.764;2023-09-30T07:44:06;100312.09;;;29.79;44.23
26192;BME280;13935;55.672;37.764;2023-09-30T07:45:13;100311.22;;;29.67;43.83
26192;BME280;13935;55.672;37.764;2023-09-30T07:46:18;100308.28;;;29.62;44.05
26192;BME280;13935;55.672;37.764;2023-09-30T07:47:21;100301.16;;;30.08;43.09
26192;BME280;13935;55.672;37.764;2023-09-30T07:48:23;100308.19;;;30.49;42.90
26192;BME280;13935;55.672;37.764;2023-09-30T07:49:32;100313.16;;;29.05;45.52
26192;BME280;13935;55.672;37.764;2023-09-30T07:50:37;100302.22;;;29.49;44.38
26192;BME280;13935;55.672;37.764;2023-09-30T07:51:40;100310.31;;;29.56;44.93
26192;BME280;13935;55.672;37.764;2023-09-30T07:52:42;100307.59;;;29.98;43.50
26192;BME280;13935;55.672;37.764;2023-09-30T07:53:45;100305.97;;;29.61;43.30
26192;BME280;13935;55.672;37.764;2023-09-30T07:54:49;100300.72;;;29.28;44.40
26192;BME280;13935;55.672;37.764;2023-09-30T07:55:55;100311.53;;;30.06;43.34
26192;BME280;13935;55.672;37.764;2023-09-30T07:56:59;100306.91;;;30.14;42.53
26192;BME280;13935;55.672;37.764;2023-09-30T07:58:01;100301.00;;;30.23;42.97
26192;BME280;13935;55.672;37.764;2023-09-30T07:59:06;100300.25;;;30.28;42.60
26192;BME280;13935;55.672;37.764;2023-09-30T08:00:08;100301.53;;;30.27;42.38
26192;BME280;13935;55.672;37.764;2023-09-30T08:01:13;100303.81;;;30.53;42.00
26192;BME280;13935;55.672;37.764;2023-09-30T08:02:18;100298.97;;;30.34;41.87
26192;BME280;13935;55.672;37.764;2023-09-30T08:03:20;100297.97;;;30.42;41.86
26192;BME280;13935;55.672;37.764;2023-09-30T08:04:23;100304.72;;;29.67;42.86
26192;BME280;13935;55.672;37.764;2023-09-30T08:05:27;100296.13;;;30.34;42.66
26192;BME280;13935;55.672;37.764;2023-09-30T08:06:30;100296.25;;;30.50;42.16